Fargo, ND (58102)

4:26 AM CDT on July 10, 2014 (GMT -0500)
Hector International (KFAR) Elev 899 ft | 46.91 °N, 96.81 °W | Change Station

Current weather conditions updated 33 minutes ago

Clear
Clear
62 °F
Feels Like 62 °F
N
8
Wind Variable Wind from SSE

Today is forecast to be Warmer than yesterday. Showers and thunderstorms late.

Today
High -- | Low -- °F
--% Chance of Precip.
Yesterday
High -- | Low -- °F
Precip. -- in
5:43 AM 9:21 PM
Waxing Gibbous, 94% visible
Pressure 29.97 in
Visibility 10.0 miles
Clouds Clear
Dew Point 51 °F
Humidity 67%
Rainfall 0.00 in
Snow Depth Not available.
UV 0 out of 12
Pollen 4.50 out of 12
Air Quality Not available.
Flu Activity Sporadic
METAR KFAR 100853Z 16007KT 10SM CLR 17/11 A2997 RMK AO2 SLP148 T01670106 58003

More Conditions Fewer Conditions

Pressure 29.97 in
Visibility 10.0 miles
Clouds Clear
Dew Point 51 °F
Humidity 67%
Rainfall 0.00 in
Snow Depth Not available.
UV 0 out of 12
Pollen 4.50 out of 12
Air Quality Not available.
Flu Activity Sporadic
METAR KFAR 100853Z 16007KT 10SM CLR 17/11 A2997 RMK AO2 SLP148 T01670106 58003

More Conditions Fewer Conditions

10-Day Weather Forecast

Almanac

Astronomy

Jul. 10, 2014 Rise Set
Actual Time 5:43 AM CDT 9:21 PM CDT
Civil Twilight 5:04 AM CDT 10:00 PM CDT
Nautical Twilight 4:12 AM CDT 10:51 PM CDT
Astronomical Twilight 3:01 AM CDT 12:02 AM CDT
Moon 7:31 PM CDT 3:59 AM CDT
Length of Visible Light 16h 55m
Length of Day
15h 38m
Tomorrow will be 1m 30s shorter.
Waxing Gibbous, 94% of the Moon is Illuminated
Today
Waxing Gibbous
Jul 12
Full
Jul 18
Last Quarter
Jul 26
New
Aug 3
First Quarter

Today's Extremes

State Highs State Lows

Community

WunderPhotos

Upload Photos

1,732,085 photos uploaded!

Nearby

Snow Depth

Station Depth Elevation
No new snow has been reported.

Earthquake Activity

City Distance Mag. Time & Date
No recent earthquake activity has been reported nearby.
Minimum magnitude displayed is 2.5.

Coastal Water Temperatures

Place Temperature
No Stations Reporting

Nearby Weather Stations

Station Location Temp. Dew Point Humidity Wind Precip. Elev Updated Type
North Fargo, Fargo, ND 0.0 °F - - North  at  0.0 mph 0.00 in / hr 899 ft 4:26 AM CDT Rapid Fire
Groovetones Central, Fargo, ND 60.0 °F 51 °F 71% SE  at  0.0 mph 0.00 in / hr 901 ft 4:26 AM CDT Rapid Fire
Country Club, Moorhead, MN 60.3 °F 52 °F 74% South  at  4.3 mph 0.00 in / hr 901 ft 4:11 AM CDT Rapid Fire
Mhd's Co-op Observer, N Moorhead, MN 58.6 °F 51 °F 75% North  at  0.0 mph 0.00 in / hr 890 ft 4:26 AM CDT Rapid Fire
Harwood, ND, Harwood, ND 57.5 °F 50 °F 77% South  at  0.0 mph 0.00 in / hr 879 ft 4:24 AM CDT Normal
South Fargo, Fargo, ND 59.0 °F 49 °F 69% SE  at  0.0 mph 0.00 in / hr 902 ft 4:22 AM CDT Normal
Westport Beach, West Fargo, ND 58.6 °F 52 °F 80% SE  at  5.8 mph - / hr 896 ft 4:11 AM CDT Normal
Argusville, Argusville, ND 56.2 °F 50 °F 80% North  at  0.0 mph 0.00 in / hr 899 ft 4:25 AM CDT Normal

Show More Stations Show Fewer Stations